createdAt,value
2018-06-17T00:02:06.259Z,100942.55
2018-06-17T00:04:34.649Z,100931.35
2018-06-17T00:07:03.073Z,100937.31
2018-06-17T00:09:31.593Z,100937.27
2018-06-17T00:12:00.053Z,100936.46
2018-06-17T00:14:28.488Z,100944.66
2018-06-17T00:16:57.141Z,100953.30
2018-06-17T00:19:25.556Z,100952.00
2018-06-17T00:21:53.964Z,100940.95
2018-06-17T00:24:22.696Z,100953.83
2018-06-17T00:26:51.472Z,100950.92
2018-06-17T00:29:20.792Z,100951.03
2018-06-17T00:31:49.320Z,100957.07
2018-06-17T00:34:17.703Z,100951.91
2018-06-17T00:36:46.979Z,100946.73
2018-06-17T00:39:15.396Z,100946.70
2018-06-17T00:41:43.787Z,100944.95
2018-06-17T00:44:12.219Z,100943.69
2018-06-17T00:46:42.053Z,100943.33
2018-06-17T00:49:11.041Z,100945.93
2018-06-17T00:51:39.493Z,100951.13
2018-06-17T00:54:08.291Z,100950.75
2018-06-17T00:56:36.705Z,100951.69
2018-06-17T00:59:05.252Z,100958.20
2018-06-17T01:01:33.843Z,100956.52
2018-06-17T01:04:02.386Z,100951.76
2018-06-17T01:06:30.869Z,100948.36
2018-06-17T01:09:00.244Z,100960.91
2018-06-17T01:11:29.769Z,100961.34
2018-06-17T01:13:58.394Z,100966.97
2018-06-17T01:16:27.696Z,100966.17
2018-06-17T01:18:56.786Z,100961.89
2018-06-17T01:21:25.201Z,100970.08
2018-06-17T01:23:53.579Z,100964.50
2018-06-17T01:26:21.963Z,100970.98
2018-06-17T01:28:50.361Z,100968.84
2018-06-17T01:31:18.752Z,100967.97
2018-06-17T01:33:47.114Z,100975.22
2018-06-17T01:36:15.550Z,100958.42
2018-06-17T01:38:44.910Z,100961.45
2018-06-17T01:41:13.315Z,100958.84
2018-06-17T01:43:41.743Z,100963.57
2018-06-17T01:46:10.170Z,100956.68
2018-06-17T01:48:38.681Z,100967.88
2018-06-17T01:51:08.302Z,100967.95
2018-06-17T01:53:36.640Z,100964.52
2018-06-17T01:56:05.059Z,100961.52
2018-06-17T01:58:34.353Z,100963.69
2018-06-17T02:01:02.802Z,100956.00
2018-06-17T02:03:36.372Z,100953.03
2018-06-17T02:08:12.376Z,100962.08
2018-06-17T02:10:46.028Z,100958.69
2018-06-17T02:13:14.467Z,100951.82
2018-06-17T02:15:42.880Z,100959.54
2018-06-17T02:18:11.315Z,100959.09
2018-06-17T02:20:39.749Z,100961.64
2018-06-17T02:23:08.140Z,100959.92
2018-06-17T02:25:36.519Z,100971.97
2018-06-17T02:28:04.967Z,100968.55
2018-06-17T02:30:33.402Z,100962.52
2018-06-17T02:33:01.897Z,100966.80
2018-06-17T02:35:30.962Z,100970.66
2018-06-17T02:37:59.359Z,100968.52
2018-06-17T02:40:27.824Z,100972.01
2018-06-17T02:42:56.235Z,100968.59
2018-06-17T02:45:30.345Z,100973.37
2018-06-17T02:48:03.994Z,100981.95
2018-06-17T02:50:37.874Z,100981.91
2018-06-17T02:53:11.343Z,100978.89
2018-06-17T02:55:39.776Z,100978.94
2018-06-17T02:58:08.224Z,100972.05
2018-06-17T03:00:37.225Z,100967.33
2018-06-17T03:03:05.863Z,100975.48
2018-06-17T03:05:34.573Z,100975.90
2018-06-17T03:08:03.741Z,100974.16
2018-06-17T03:10:32.109Z,100975.03
2018-06-17T03:13:00.495Z,100984.09
2018-06-17T03:15:28.921Z,100985.38
2018-06-17T03:17:57.345Z,100981.05
2018-06-17T03:20:25.751Z,100985.38
2018-06-17T03:22:54.174Z,100997.41
2018-06-17T03:25:27.664Z,100994.81
2018-06-17T03:28:02.103Z,100993.98
2018-06-17T03:30:35.676Z,100993.95
2018-06-17T03:33:09.477Z,100989.17
2018-06-17T03:36:15.139Z,100993.02
2018-06-17T03:38:43.637Z,100977.50
2018-06-17T03:41:12.812Z,100985.70
2018-06-17T03:43:42.089Z,100982.70
2018-06-17T03:46:10.853Z,100995.12
2018-06-17T03:48:39.404Z,100990.38
2018-06-17T03:51:07.980Z,100989.98
2018-06-17T03:53:36.424Z,100996.84
2018-06-17T03:56:04.812Z,101001.61
2018-06-17T03:58:33.199Z,101005.91
2018-06-17T04:01:01.614Z,101001.59
2018-06-17T04:03:29.992Z,101001.21
2018-06-17T04:05:58.428Z,100996.47
2018-06-17T04:08:26.828Z,100990.39
2018-06-17T04:10:55.695Z,100991.22
2018-06-17T04:13:24.124Z,100993.36
2018-06-17T04:15:52.530Z,100991.62
2018-06-17T04:18:20.958Z,100994.25
2018-06-17T04:20:49.383Z,100998.95
2018-06-17T04:23:18.444Z,100996.37
2018-06-17T04:25:46.814Z,100994.67
2018-06-17T04:28:16.188Z,100997.23
2018-06-17T04:30:44.580Z,100993.34
2018-06-17T04:33:13.008Z,100994.61
2018-06-17T04:35:42.383Z,100998.89
2018-06-17T04:38:10.836Z,100998.02
2018-06-17T04:40:39.315Z,100997.14
2018-06-17T04:43:07.677Z,100993.69
2018-06-17T04:45:36.084Z,100992.36
2018-06-17T04:48:04.486Z,100994.06
2018-06-17T04:50:32.876Z,100995.78
2018-06-17T04:53:01.264Z,100996.66
2018-06-17T04:55:29.678Z,100991.05
2018-06-17T04:57:58.115Z,100995.78
2018-06-17T05:00:26.543Z,101001.38
2018-06-17T05:02:54.940Z,100991.92
2018-06-17T05:05:23.352Z,100994.93
2018-06-17T05:07:51.792Z,100996.67
2018-06-17T05:10:20.161Z,100990.19
2018-06-17T05:12:48.602Z,100990.61
2018-06-17T05:15:16.994Z,100994.48
2018-06-17T05:17:45.392Z,101000.09
2018-06-17T05:20:13.861Z,101001.81
2018-06-17T05:22:42.254Z,100999.63
2018-06-17T05:25:10.654Z,101002.19
2018-06-17T05:27:39.274Z,100993.99
2018-06-17T05:30:07.676Z,100996.16
2018-06-17T05:32:36.095Z,100996.53
2018-06-17T05:35:04.579Z,100998.22
2018-06-17T05:37:32.964Z,101002.04
2018-06-17T05:40:01.392Z,100995.53
2018-06-17T05:42:29.817Z,100997.70
2018-06-17T05:44:58.234Z,100998.52
2018-06-17T05:47:26.653Z,101007.59
2018-06-17T05:49:54.981Z,101011.01
2018-06-17T05:52:23.413Z,101015.32
2018-06-17T05:54:51.794Z,101007.59
2018-06-17T05:57:20.229Z,101008.45
2018-06-17T05:59:48.612Z,101011.05
2018-06-17T06:02:17.002Z,101014.47
2018-06-17T06:04:45.512Z,101018.72
2018-06-17T06:07:13.996Z,101013.56
2018-06-17T06:09:42.426Z,101013.06
2018-06-17T06:12:10.998Z,101013.05
2018-06-17T06:14:40.029Z,101016.05
2018-06-17T06:17:08.453Z,101018.23
2018-06-17T06:19:36.828Z,101013.97
2018-06-17T06:22:05.224Z,101022.14
2018-06-17T06:24:33.754Z,101020.02
2018-06-17T06:27:02.178Z,101017.81
2018-06-17T06:29:31.864Z,101021.28
2018-06-17T06:32:00.238Z,101023.41
2018-06-17T06:34:28.636Z,101023.84
2018-06-17T06:36:57.072Z,101020.82
2018-06-17T06:39:26.114Z,101024.25
2018-06-17T06:41:54.558Z,101018.19
2018-06-17T06:44:22.943Z,101018.98
2018-06-17T06:46:51.368Z,101020.23
2018-06-17T06:49:19.778Z,101027.05
2018-06-17T06:51:48.174Z,101024.48
2018-06-17T06:54:16.589Z,101027.09
2018-06-17T06:56:45.100Z,101026.22
2018-06-17T06:59:14.693Z,101031.35
2018-06-17T07:01:54.235Z,101024.45
2018-06-17T07:04:33.681Z,101030.89
2018-06-17T07:07:13.252Z,101032.19
2018-06-17T07:09:52.865Z,101031.73
2018-06-17T07:12:21.290Z,101039.84
2018-06-17T07:14:49.669Z,101042.77
2018-06-17T07:17:29.377Z,101044.36
2018-06-17T07:19:57.769Z,101037.02
2018-06-17T07:22:26.198Z,101049.45
2018-06-17T07:24:54.594Z,101048.14
2018-06-17T07:27:34.160Z,101063.19
2018-06-17T07:30:02.578Z,101054.67
2018-06-17T07:32:31.042Z,101054.26
2018-06-17T07:34:59.453Z,101070.24
2018-06-17T07:37:27.931Z,101080.63
2018-06-17T07:40:46.467Z,101070.31
2018-06-17T07:43:14.929Z,101071.13
2018-06-17T07:45:43.588Z,101076.29
2018-06-17T07:48:13.445Z,101076.25
2018-06-17T07:50:52.901Z,101074.84
2018-06-17T07:53:21.403Z,101081.25
2018-06-17T07:55:49.804Z,101072.59
2018-06-17T07:58:18.197Z,101073.38
2018-06-17T08:00:46.623Z,101072.45
2018-06-17T08:03:15.041Z,101076.39
2018-06-17T08:05:44.188Z,101077.22
2018-06-17T08:08:12.552Z,101079.39
2018-06-17T08:10:41.056Z,101072.92
2018-06-17T08:13:09.811Z,101071.53
2018-06-17T08:15:38.188Z,101078.34
2018-06-17T08:18:06.608Z,101075.75
2018-06-17T08:20:35.047Z,101077.50
2018-06-17T08:23:03.452Z,101079.64
2018-06-17T08:25:31.816Z,101077.44
2018-06-17T08:28:00.193Z,101073.16
2018-06-17T08:30:28.612Z,101073.16
2018-06-17T08:32:57.044Z,101073.09
2018-06-17T08:35:25.469Z,101071.30
2018-06-17T08:37:53.849Z,101070.75
2018-06-17T08:40:22.211Z,101076.70
2018-06-17T08:42:50.595Z,101071.43
2018-06-17T08:45:20.109Z,101066.18
2018-06-17T08:47:48.495Z,101068.38
2018-06-17T08:50:16.871Z,101065.00
2018-06-17T08:52:46.633Z,101068.94
2018-06-17T08:55:15.008Z,101067.71
2018-06-17T08:57:43.528Z,101067.20
2018-06-17T09:00:12.870Z,101065.37
2018-06-17T09:02:41.237Z,101071.31
2018-06-17T09:05:09.622Z,101060.03
2018-06-17T09:07:38.032Z,101070.02
2018-06-17T09:10:06.456Z,101071.31
2018-06-17T09:12:34.920Z,101065.30
2018-06-17T09:15:03.362Z,101068.66
2018-06-17T09:17:32.274Z,101069.91
2018-06-17T09:20:01.513Z,101069.05
2018-06-17T09:22:29.954Z,101069.57
2018-06-17T09:24:58.412Z,101068.66
2018-06-17T09:27:27.546Z,101065.19
2018-06-17T09:29:56.214Z,101071.14
2018-06-17T09:32:24.699Z,101071.60
2018-06-17T09:34:54.144Z,101075.49
2018-06-17T09:37:22.561Z,101071.16
2018-06-17T09:39:50.988Z,101077.64
2018-06-17T09:42:19.360Z,101081.92
2018-06-17T09:44:49.608Z,101072.23
2018-06-17T09:47:18.585Z,101070.73
2018-06-17T09:49:47.964Z,101067.80
2018-06-17T09:52:16.604Z,101072.13
2018-06-17T09:54:45.047Z,101073.40
2018-06-17T09:57:13.508Z,101079.05
2018-06-17T09:59:41.939Z,101079.47
2018-06-17T10:02:10.343Z,101079.98
2018-06-17T10:04:39.620Z,101082.19
2018-06-17T10:07:07.971Z,101074.13
2018-06-17T10:09:45.725Z,101077.44
2018-06-17T10:12:14.174Z,101074.33
2018-06-17T10:14:42.884Z,101069.45
2018-06-17T10:17:11.340Z,101079.17
2018-06-17T10:19:39.723Z,101074.70
2018-06-17T10:22:08.184Z,101078.70
2018-06-17T10:24:37.163Z,101086.19
2018-06-17T10:27:05.569Z,101085.34
2018-06-17T10:29:33.989Z,101078.41
2018-06-17T10:32:02.382Z,101082.02
2018-06-17T10:34:30.833Z,101081.34
2018-06-17T10:36:59.220Z,101080.14
2018-06-17T10:39:27.619Z,101098.02
2018-06-17T10:41:56.006Z,101093.44
2018-06-17T10:44:24.493Z,101096.29
2018-06-17T10:46:53.487Z,101093.55
2018-06-17T10:49:21.880Z,101092.80
2018-06-17T10:51:50.502Z,101091.52
2018-06-17T10:54:18.888Z,101093.63
2018-06-17T10:56:47.307Z,101096.09
2018-06-17T10:59:15.761Z,101096.92
2018-06-17T11:01:44.195Z,101107.23
2018-06-17T11:04:12.822Z,101107.32
2018-06-17T11:06:41.992Z,101109.83
2018-06-17T11:09:10.365Z,101106.91
2018-06-17T11:11:38.793Z,101113.59
2018-06-17T11:14:07.232Z,101108.79
2018-06-17T11:16:35.621Z,101115.69
2018-06-17T11:19:04.038Z,101108.84
2018-06-17T11:21:32.472Z,101103.65
2018-06-17T11:24:01.116Z,101112.73
2018-06-17T11:26:29.736Z,101105.88
2018-06-17T11:28:58.083Z,101115.33
2018-06-17T11:31:26.500Z,101114.03
2018-06-17T11:33:55.584Z,101111.74
2018-06-17T11:36:23.987Z,101106.69
2018-06-17T11:38:52.668Z,101115.19
2018-06-17T11:41:21.061Z,101117.02
2018-06-17T11:43:49.559Z,101121.45
2018-06-17T11:46:18.153Z,101106.02
2018-06-17T11:48:46.786Z,101118.62
2018-06-17T11:51:15.216Z,101114.39
2018-06-17T11:53:43.751Z,101112.22
2018-06-17T11:56:12.183Z,101112.97
2018-06-17T11:58:40.622Z,101122.08
2018-06-17T12:01:09.094Z,101122.95
2018-06-17T12:03:37.656Z,101126.97
2018-06-17T12:06:06.143Z,101130.14
2018-06-17T12:08:34.594Z,101129.80
2018-06-17T12:11:02.960Z,101127.33
2018-06-17T12:13:31.496Z,101130.35
2018-06-17T12:16:00.588Z,101130.29
2018-06-17T12:18:29.609Z,101132.42
2018-06-17T12:20:58.020Z,101135.68
2018-06-17T12:23:26.440Z,101136.56
2018-06-17T12:25:54.995Z,101141.70
2018-06-17T12:28:23.523Z,101143.45
2018-06-17T12:30:51.973Z,101149.13
2018-06-17T12:33:20.500Z,101149.64
2018-06-17T12:35:48.897Z,101147.62
2018-06-17T12:38:17.312Z,101150.25
2018-06-17T12:40:45.750Z,101143.66
2018-06-17T12:43:14.376Z,101155.27
2018-06-17T12:45:44.032Z,101143.13
2018-06-17T12:48:12.413Z,101145.56
2018-06-17T12:50:40.801Z,101144.73
2018-06-17T12:53:09.962Z,101143.26
2018-06-17T12:55:38.432Z,101144.78
2018-06-17T12:58:07.054Z,101144.03
2018-06-17T13:00:35.443Z,101137.11
2018-06-17T13:03:04.035Z,101151.38
2018-06-17T13:05:32.521Z,101151.44
2018-06-17T13:08:00.919Z,101148.27
2018-06-17T13:10:31.424Z,101153.09
2018-06-17T13:12:59.805Z,101161.19
2018-06-17T13:15:28.213Z,101158.58
2018-06-17T13:17:56.840Z,101157.42
2018-06-17T13:20:25.249Z,101153.28
2018-06-17T13:22:53.748Z,101145.96
2018-06-17T13:25:22.145Z,101148.34
2018-06-17T13:27:50.591Z,101156.13
2018-06-17T13:30:18.975Z,101151.11
2018-06-17T13:32:47.372Z,101156.22
2018-06-17T13:35:15.808Z,101169.11
2018-06-17T13:37:44.230Z,101165.13
2018-06-17T13:40:13.074Z,101167.39
2018-06-17T13:42:42.167Z,101171.38
2018-06-17T13:45:10.724Z,101169.85
2018-06-17T13:47:39.350Z,101161.08
2018-06-17T13:50:07.748Z,101171.97
2018-06-17T13:52:37.048Z,101165.65
2018-06-17T13:55:05.503Z,101177.41
2018-06-17T13:57:33.935Z,101170.14
2018-06-17T14:00:02.392Z,101169.63
2018-06-17T14:02:30.804Z,101177.48
2018-06-17T14:04:59.461Z,101176.55
2018-06-17T14:07:27.985Z,101184.36
2018-06-17T14:09:56.667Z,101182.87
2018-06-17T14:12:25.101Z,101183.46
2018-06-17T14:14:53.529Z,101186.52
2018-06-17T14:17:21.933Z,101184.30
2018-06-17T14:19:50.388Z,101179.33
2018-06-17T14:22:19.508Z,101182.95
2018-06-17T14:24:47.935Z,101180.81
2018-06-17T14:27:16.493Z,101183.11
2018-06-17T14:29:44.849Z,101181.50
2018-06-17T14:32:14.395Z,101187.59
2018-06-17T14:34:43.043Z,101182.37
2018-06-17T14:37:11.576Z,101195.45
2018-06-17T14:39:40.024Z,101191.97
2018-06-17T14:42:13.648Z,101194.69
2018-06-17T14:44:47.271Z,101190.78
2018-06-17T14:47:21.500Z,101193.34
2018-06-17T14:49:55.347Z,101189.27
2018-06-17T14:52:30.783Z,101188.16
2018-06-17T14:54:59.288Z,101206.65
2018-06-17T14:57:28.574Z,101180.80
2018-06-17T14:59:57.106Z,101188.90
2018-06-17T15:02:25.560Z,101185.99
2018-06-17T15:04:53.996Z,101193.56
2018-06-17T15:07:22.398Z,101186.73
2018-06-17T15:09:50.760Z,101196.03
2018-06-17T15:12:19.171Z,101197.02
2018-06-17T15:14:47.615Z,101197.34
2018-06-17T15:17:16.101Z,101203.91
2018-06-17T15:19:45.467Z,101210.41
2018-06-17T15:22:13.881Z,101200.97
2018-06-17T15:24:42.313Z,101202.61
2018-06-17T15:27:10.749Z,101202.91
2018-06-17T15:29:39.132Z,101201.47
2018-06-17T15:32:12.940Z,101191.53
2018-06-17T15:34:46.685Z,101198.18
2018-06-17T15:37:20.313Z,101201.95
2018-06-17T15:39:50.750Z,101199.36
2018-06-17T15:42:19.196Z,101206.80
2018-06-17T15:44:47.564Z,101196.49
2018-06-17T15:47:15.988Z,101197.52
2018-06-17T15:49:46.465Z,101192.39
2018-06-17T15:52:14.895Z,101193.25
2018-06-17T15:54:44.232Z,101188.89
2018-06-17T15:57:13.681Z,101187.91
2018-06-17T15:59:42.192Z,101180.49
2018-06-17T16:02:10.617Z,101175.67
2018-06-17T16:04:39.024Z,101178.67
2018-06-17T16:07:07.412Z,101180.84
2018-06-17T16:09:35.860Z,101175.67
2018-06-17T16:12:09.659Z,101180.03
2018-06-17T16:14:43.474Z,101191.06
2018-06-17T16:17:17.208Z,101190.17
2018-06-17T16:19:50.651Z,101186.63
2018-06-17T16:22:19.126Z,101183.48
2018-06-17T16:24:48.580Z,101185.93
2018-06-17T16:27:17.338Z,101192.73
2018-06-17T16:29:45.785Z,101194.89
2018-06-17T16:32:14.243Z,101196.77
2018-06-17T16:34:42.701Z,101205.82
2018-06-17T16:37:11.217Z,101197.00
2018-06-17T16:39:40.136Z,101193.02
2018-06-17T16:42:08.605Z,101201.23
2018-06-17T16:44:37.066Z,101207.65
2018-06-17T16:47:06.064Z,101207.70
2018-06-17T16:49:34.578Z,101207.40
2018-06-17T16:52:08.346Z,101219.81
2018-06-17T16:54:42.004Z,101216.37
2018-06-17T16:57:15.639Z,101213.81
2018-06-17T16:59:49.477Z,101226.02
2018-06-17T17:02:18.925Z,101230.80
2018-06-17T17:04:47.273Z,101234.72
2018-06-17T17:07:15.704Z,101233.08
2018-06-17T17:09:44.125Z,101229.19
2018-06-17T17:12:12.560Z,101230.05
2018-06-17T17:14:41.016Z,101240.41
2018-06-17T17:17:09.712Z,101240.02
2018-06-17T17:19:38.353Z,101243.36
2018-06-17T17:22:06.792Z,101253.84
2018-06-17T17:24:35.194Z,101240.55
2018-06-17T17:27:04.140Z,101248.30
2018-06-17T17:29:32.598Z,101262.66
2018-06-17T17:32:06.376Z,101260.08
2018-06-17T17:34:40.116Z,101263.46
2018-06-17T17:37:13.852Z,101258.20
2018-06-17T17:39:47.532Z,101254.63
2018-06-17T17:42:15.929Z,101256.77
2018-06-17T17:44:49.815Z,101254.11
2018-06-17T17:47:23.512Z,101250.20
2018-06-17T17:49:52.434Z,101245.93
2018-06-17T17:52:21.654Z,101239.00
2018-06-17T17:54:50.195Z,101235.45
2018-06-17T17:57:19.441Z,101241.02
2018-06-17T17:59:48.460Z,101238.16
2018-06-17T18:02:17.109Z,101239.44
2018-06-17T18:04:46.161Z,101244.66
2018-06-17T18:07:15.197Z,101245.75
2018-06-17T18:09:43.627Z,101248.42
2018-06-17T18:12:12.265Z,101250.56
2018-06-17T18:14:40.672Z,101240.63
2018-06-17T18:17:09.084Z,101250.48
2018-06-17T18:19:37.456Z,101249.99
2018-06-17T18:22:06.078Z,101256.39
2018-06-17T18:24:34.543Z,101252.04
2018-06-17T18:28:05.673Z,101238.23
2018-06-17T18:30:39.537Z,101236.02
2018-06-17T18:33:13.343Z,101236.53
2018-06-17T18:35:46.941Z,101238.30
2018-06-17T18:38:15.660Z,101235.74
2018-06-17T18:40:44.531Z,101245.25
2018-06-17T18:43:13.635Z,101239.36
2018-06-17T18:45:42.160Z,101241.95
2018-06-17T18:48:11.172Z,101241.13
2018-06-17T18:50:40.471Z,101248.09
2018-06-17T18:53:09.533Z,101241.28
2018-06-17T18:55:37.914Z,101242.12
2018-06-17T18:58:06.476Z,101246.84
2018-06-17T19:00:34.949Z,101247.66
2018-06-17T19:03:03.405Z,101252.05
2018-06-17T19:05:31.837Z,101257.15
2018-06-17T19:08:00.314Z,101260.14
2018-06-17T19:10:34.280Z,101260.98
2018-06-17T19:13:08.030Z,101261.88
2018-06-17T19:15:41.812Z,101258.01
2018-06-17T19:18:12.793Z,101256.71
2018-06-17T19:20:42.127Z,101258.52
2018-06-17T19:23:10.567Z,101263.30
2018-06-17T19:25:39.021Z,101266.31
2018-06-17T19:28:07.425Z,101267.63
2018-06-17T19:30:35.857Z,101264.58
2018-06-17T19:33:05.054Z,101270.20
2018-06-17T19:35:34.720Z,101271.52
2018-06-17T19:38:03.190Z,101268.05
2018-06-17T19:40:31.607Z,101270.64
2018-06-17T19:43:00.409Z,101274.55
2018-06-17T19:45:29.001Z,101278.41
2018-06-17T19:47:57.462Z,101284.52
2018-06-17T19:50:31.148Z,101278.94
2018-06-17T19:53:04.830Z,101285.85
2018-06-17T19:55:38.917Z,101286.76
2018-06-17T19:58:13.582Z,101283.70
2018-06-17T20:00:43.856Z,101284.13
2018-06-17T20:03:12.361Z,101291.05
2018-06-17T20:05:40.989Z,101294.09
2018-06-17T20:08:09.457Z,101292.38
2018-06-17T20:10:38.217Z,101286.34
2018-06-17T20:13:07.252Z,101285.48
2018-06-17T20:15:35.885Z,101290.66
2018-06-17T20:18:04.300Z,101292.38
2018-06-17T20:20:32.866Z,101298.42
2018-06-17T20:23:01.301Z,101290.72
2018-06-17T20:25:30.217Z,101290.27
2018-06-17T20:27:58.668Z,101296.75
2018-06-17T20:30:27.068Z,101297.20
2018-06-17T20:33:00.862Z,101296.75
2018-06-17T20:35:34.536Z,101291.55
2018-06-17T20:38:08.772Z,101297.59
2018-06-17T20:40:42.747Z,101299.34
2018-06-17T20:43:16.473Z,101297.22
2018-06-17T20:45:45.036Z,101305.00
2018-06-17T20:48:13.623Z,101302.86
2018-06-17T20:50:42.039Z,101305.03
2018-06-17T20:53:10.543Z,101309.36
2018-06-17T20:55:38.979Z,101309.84
2018-06-17T20:58:07.484Z,101305.54
2018-06-17T21:00:35.990Z,101314.12
2018-06-17T21:03:04.828Z,101301.20
2018-06-17T21:05:33.266Z,101304.66
2018-06-17T21:08:02.581Z,101305.07
2018-06-17T21:10:32.289Z,101301.61
2018-06-17T21:13:00.690Z,101305.06
2018-06-17T21:15:29.100Z,101305.95
2018-06-17T21:17:57.500Z,101309.05
2018-06-17T21:20:31.128Z,101305.63
2018-06-17T21:23:05.008Z,101309.05
2018-06-17T21:25:38.447Z,101303.03
2018-06-17T21:28:07.138Z,101297.92
2018-06-17T21:30:35.524Z,101302.65
2018-06-17T21:33:04.037Z,101309.99
2018-06-17T21:35:32.420Z,101314.31
2018-06-17T21:38:00.844Z,101316.50
2018-06-17T21:40:29.260Z,101310.45
2018-06-17T21:42:57.701Z,101309.58
2018-06-17T21:45:26.125Z,101309.61
2018-06-17T21:47:54.827Z,101307.87
2018-06-17T21:50:23.237Z,101300.96
2018-06-17T21:52:51.714Z,101301.37
2018-06-17T21:55:20.181Z,101303.53
2018-06-17T21:57:48.613Z,101309.14
2018-06-17T22:00:17.093Z,101315.20
2018-06-17T22:02:45.795Z,101316.06
2018-06-17T22:05:14.513Z,101311.75
2018-06-17T22:07:48.192Z,101309.60
2018-06-17T22:10:21.804Z,101306.59
2018-06-17T22:12:55.584Z,101307.02
2018-06-17T22:15:29.045Z,101298.83
2018-06-17T22:17:57.521Z,101299.66
2018-06-17T22:20:25.912Z,101299.66
2018-06-17T22:22:55.052Z,101300.95
2018-06-17T22:25:23.511Z,101310.02
2018-06-17T22:27:52.018Z,101307.44
2018-06-17T22:30:20.416Z,101312.62
2018-06-17T22:32:48.792Z,101318.66
2018-06-17T22:35:17.209Z,101316.92
2018-06-17T22:37:45.626Z,101319.52
2018-06-17T22:40:14.117Z,101320.38
2018-06-17T22:42:42.567Z,101322.09
2018-06-17T22:45:10.980Z,101322.11
2018-06-17T22:47:45.514Z,101324.25
2018-06-17T22:50:14.147Z,101320.81
2018-06-17T22:52:53.782Z,101322.09
2018-06-17T22:55:22.202Z,101322.55
2018-06-17T22:57:55.776Z,101322.96
2018-06-17T23:00:30.355Z,101334.17
2018-06-17T23:03:04.084Z,101326.84
2018-06-17T23:05:37.649Z,101324.26
2018-06-17T23:08:11.230Z,101332.89
2018-06-17T23:10:39.625Z,101331.20
2018-06-17T23:13:08.054Z,101330.78
2018-06-17T23:15:36.469Z,101340.26
2018-06-17T23:18:04.979Z,101343.28
2018-06-17T23:20:33.402Z,101337.72
2018-06-17T23:23:01.862Z,101337.70
2018-06-17T23:25:31.445Z,101333.38
2018-06-17T23:27:59.856Z,101335.11
2018-06-17T23:30:29.185Z,101341.14
2018-06-17T23:32:57.841Z,101345.89
2018-06-17T23:35:26.342Z,101352.77
2018-06-17T23:37:54.778Z,101345.03
2018-06-17T23:40:23.305Z,101352.80
2018-06-17T23:42:51.705Z,101348.47
2018-06-17T23:45:20.962Z,101348.03
2018-06-17T23:47:54.748Z,101344.16
2018-06-17T23:50:28.563Z,101339.43
2018-06-17T23:53:02.249Z,101348.05
2018-06-17T23:55:36.061Z,101354.06
2018-06-17T23:58:04.478Z,101356.27
